createdAt,value
2023-02-12T00:01:24.896Z,99.90
2023-02-12T00:03:51.791Z,99.90
2023-02-12T00:06:18.556Z,99.90
2023-02-12T00:08:45.318Z,99.90
2023-02-12T00:11:18.419Z,99.90
2023-02-12T00:13:45.252Z,99.90
2023-02-12T00:16:14.791Z,99.90
2023-02-12T00:18:41.972Z,99.90
2023-02-12T00:21:08.997Z,99.90
2023-02-12T00:23:37.036Z,99.90
2023-02-12T00:26:08.660Z,99.90
2023-02-12T00:28:36.163Z,99.90
2023-02-12T05:31:12.952Z,99.90
2023-02-12T05:33:42.740Z,99.90
2023-02-12T05:36:19.497Z,99.90
2023-02-12T05:38:46.467Z,99.90
2023-02-12T05:41:18.914Z,99.90
2023-02-12T05:43:48.481Z,99.90
2023-02-12T05:46:17.783Z,99.90
2023-02-12T05:48:45.006Z,99.90
2023-02-12T05:51:17.735Z,99.90
2023-02-12T05:53:44.386Z,99.90
2023-02-12T05:56:12.929Z,99.90
2023-02-12T05:58:41.112Z,99.90
2023-02-12T06:01:20.445Z,99.90
2023-02-12T06:03:47.158Z,99.90
2023-02-12T06:06:14.141Z,99.90
2023-02-12T06:08:40.885Z,99.90
2023-02-12T06:11:12.600Z,99.90
2023-02-12T06:13:39.657Z,99.90
2023-02-12T06:16:06.749Z,99.90
2023-02-12T06:18:36.183Z,99.90
2023-02-12T06:21:05.934Z,99.90
2023-02-12T06:23:32.615Z,99.90
2023-02-12T06:25:59.533Z,99.90
2023-02-12T06:28:26.293Z,99.90
2023-02-12T06:30:53.121Z,99.90
2023-02-12T06:33:19.751Z,99.90
2023-02-12T06:35:46.499Z,99.90
2023-02-12T06:38:14.166Z,99.90
2023-02-12T06:40:40.865Z,99.90
2023-02-12T06:43:07.727Z,99.90
2023-02-12T06:45:34.906Z,99.90
2023-02-12T06:48:01.624Z,99.90
2023-02-12T06:50:28.560Z,99.90
2023-02-12T06:52:55.241Z,99.90
2023-02-12T06:55:21.886Z,99.90
2023-02-12T06:57:48.531Z,99.90
2023-02-12T07:00:15.374Z,99.90
2023-02-12T07:02:42.032Z,99.90
2023-02-12T07:05:08.809Z,99.90
2023-02-12T07:07:35.681Z,99.90
2023-02-12T07:10:02.387Z,99.90
2023-02-12T07:12:29.036Z,99.90
2023-02-12T07:14:55.696Z,99.90
2023-02-12T07:17:22.418Z,99.90
2023-02-12T07:19:49.074Z,99.90
2023-02-12T07:22:15.652Z,99.90
2023-02-12T07:24:42.510Z,99.90
2023-02-12T07:27:09.182Z,99.90
2023-02-12T07:29:35.881Z,99.90
2023-02-12T07:32:02.590Z,99.90
2023-02-12T07:34:29.302Z,99.90
2023-02-12T07:36:56.190Z,99.90
2023-02-12T07:39:23.081Z,99.90
2023-02-12T07:41:49.890Z,99.90
2023-02-12T07:44:16.647Z,99.90
2023-02-12T07:46:48.275Z,99.90
2023-02-12T07:49:20.608Z,99.90
2023-02-12T07:51:49.124Z,99.90
2023-02-12T07:54:16.264Z,99.90
2023-02-12T07:56:46.688Z,99.90
2023-02-12T07:59:15.444Z,99.90
2023-02-12T08:01:46.589Z,99.90
2023-02-12T08:04:15.246Z,99.90
2023-02-12T08:06:44.697Z,99.90
2023-02-12T08:09:14.707Z,99.90
2023-02-12T08:11:42.633Z,99.90
2023-02-12T08:14:12.289Z,99.90
2023-02-12T08:16:41.345Z,99.90
2023-02-12T08:19:17.820Z,99.90
2023-02-12T08:21:47.385Z,99.90
2023-02-12T08:24:14.126Z,99.90
2023-02-12T08:26:40.811Z,99.90
2023-02-12T08:29:13.092Z,99.90
2023-02-12T08:31:42.487Z,99.90
2023-02-12T08:34:23.455Z,99.90
2023-02-12T08:36:51.776Z,99.90
2023-02-12T08:39:18.932Z,99.90
2023-02-12T08:41:46.836Z,99.90
2023-02-12T08:44:14.539Z,99.90
2023-02-12T08:46:46.665Z,99.90
2023-02-12T08:49:15.463Z,99.90
2023-02-12T08:51:45.080Z,99.90
2023-02-12T08:54:14.375Z,99.90
2023-02-12T08:56:42.234Z,99.90
2023-02-12T08:59:10.851Z,99.90
2023-02-12T09:01:38.796Z,99.90
2023-02-12T09:04:06.392Z,99.90
2023-02-12T09:06:35.208Z,99.90
2023-02-12T09:09:02.612Z,99.90
2023-02-12T09:11:33.068Z,99.90
2023-02-12T09:14:03.410Z,99.90
2023-02-12T09:16:32.319Z,99.90
2023-02-12T09:18:59.121Z,99.90
2023-02-12T09:21:26.193Z,99.90
2023-02-12T09:23:53.189Z,99.90
2023-02-12T09:26:22.384Z,99.90
2023-02-12T09:28:50.533Z,99.90
2023-02-12T09:31:26.353Z,99.90
2023-02-12T09:33:55.369Z,99.90
2023-02-12T09:36:22.324Z,99.90
2023-02-12T09:38:49.612Z,99.90
2023-02-12T09:41:16.194Z,99.90
2023-02-12T09:44:05.951Z,99.90
2023-02-12T09:46:39.015Z,99.90
2023-02-12T09:49:17.778Z,99.90
2023-02-12T09:51:51.024Z,99.90
2023-02-12T09:54:20.987Z,99.90
2023-02-12T09:56:52.356Z,99.90
2023-02-12T09:59:31.692Z,99.90
2023-02-12T10:01:59.518Z,99.90
2023-02-12T10:04:27.759Z,99.90
2023-02-12T10:07:17.724Z,99.90
2023-02-12T10:10:15.186Z,99.90
2023-02-12T10:13:06.125Z,99.90
2023-02-12T10:15:44.280Z,99.90
2023-02-12T10:18:19.715Z,99.90
2023-02-12T10:21:06.132Z,99.90
2023-02-12T10:23:47.684Z,99.90
2023-02-12T10:26:22.734Z,99.90
2023-02-12T10:28:50.571Z,99.90
2023-02-12T10:31:30.364Z,99.90
2023-02-12T10:34:00.120Z,99.90
2023-02-12T10:36:45.097Z,99.90
2023-02-12T10:39:14.628Z,99.90
2023-02-12T10:41:49.654Z,99.90
2023-02-12T10:44:16.270Z,99.90
2023-02-12T10:46:43.035Z,99.90
2023-02-12T10:49:14.826Z,99.90
2023-02-12T10:51:55.073Z,99.90
2023-02-12T10:54:51.071Z,99.90
2023-02-12T10:57:21.047Z,99.90
2023-02-12T10:59:50.504Z,99.90
2023-02-12T11:02:32.015Z,99.90
2023-02-12T11:05:00.390Z,99.90
2023-02-12T11:07:28.474Z,99.90
2023-02-12T11:09:57.136Z,99.90
2023-02-12T11:12:36.759Z,99.90
2023-02-12T11:15:24.809Z,99.90
2023-02-12T11:18:08.584Z,99.90
2023-02-12T11:20:54.499Z,99.90
2023-02-12T11:23:29.226Z,99.90
2023-02-12T11:25:59.785Z,99.90
2023-02-12T11:28:27.166Z,99.90
2023-02-12T11:31:00.629Z,99.90
2023-02-12T11:33:36.544Z,99.90
2023-02-12T11:36:16.048Z,99.90
2023-02-12T11:38:57.435Z,99.90
2023-02-12T11:41:36.011Z,99.90
2023-02-12T11:44:13.357Z,99.90
2023-02-12T11:46:40.634Z,99.90
2023-02-12T11:49:09.359Z,99.90
2023-02-12T11:51:37.477Z,99.90
2023-02-12T11:54:06.460Z,99.90
2023-02-12T11:56:45.499Z,99.90
2023-02-12T11:59:21.527Z,99.90
2023-02-12T12:01:50.490Z,99.90
2023-02-12T12:04:21.725Z,98.80
2023-02-12T12:07:21.034Z,95.80
2023-02-12T12:10:03.547Z,94.60
2023-02-12T12:12:45.389Z,93.60
2023-02-12T12:15:56.633Z,93.10
2023-02-12T12:18:55.764Z,92.50
2023-02-12T12:21:28.063Z,93.10
2023-02-12T12:24:17.334Z,93.90
2023-02-12T12:26:49.160Z,94.40
2023-02-12T12:29:32.751Z,94.30
2023-02-12T12:32:03.559Z,94.40
2023-02-12T12:34:30.372Z,94.00
2023-02-12T12:37:12.494Z,93.40
2023-02-12T12:39:42.126Z,93.20
2023-02-12T12:42:36.298Z,92.70
2023-02-12T12:45:24.635Z,92.50
2023-02-12T12:48:03.296Z,92.30
2023-02-12T12:50:49.998Z,91.80
2023-02-12T12:53:28.635Z,91.60
2023-02-12T12:56:04.227Z,91.50
2023-02-12T12:58:53.821Z,92.50
2023-02-12T13:01:46.700Z,92.90
2023-02-12T13:04:57.163Z,92.90
2023-02-12T13:07:48.451Z,93.00
2023-02-12T13:10:27.147Z,93.20
2023-02-12T13:13:33.249Z,93.40
2023-02-12T13:16:28.332Z,93.50
2023-02-12T13:18:58.821Z,94.50
2023-02-12T13:21:39.573Z,95.10
2023-02-12T13:24:30.720Z,95.20
2023-02-12T13:27:07.819Z,95.50
2023-02-12T13:29:44.108Z,95.20
2023-02-12T13:32:25.937Z,94.40
2023-02-12T13:34:54.796Z,94.70
2023-02-12T13:37:36.620Z,94.70
2023-02-12T13:40:06.836Z,95.10
2023-02-12T13:42:46.183Z,95.30
2023-02-12T13:45:25.123Z,95.50
2023-02-12T13:48:03.811Z,95.10
2023-02-12T13:51:02.721Z,94.10
2023-02-12T13:53:48.156Z,93.80
2023-02-12T13:56:42.088Z,93.60
2023-02-12T13:59:31.118Z,94.10
2023-02-12T14:02:04.498Z,93.90
2023-02-12T14:04:44.058Z,93.50
2023-02-12T14:07:14.019Z,93.80
2023-02-12T14:10:01.979Z,93.70
2023-02-12T14:12:35.502Z,93.30
2023-02-12T14:15:29.526Z,93.00
2023-02-12T14:18:04.264Z,92.80
2023-02-12T14:20:36.340Z,93.00
2023-02-12T14:23:27.565Z,93.10
2023-02-12T14:26:11.486Z,93.00
2023-02-12T14:29:01.794Z,93.30
2023-02-12T14:31:31.864Z,92.40
2023-02-12T14:34:04.768Z,92.80
2023-02-12T14:36:32.163Z,93.00
2023-02-12T14:39:24.915Z,93.00
2023-02-12T14:41:53.325Z,92.40
2023-02-12T14:44:21.427Z,92.40
2023-02-12T14:46:53.565Z,91.80
2023-02-12T14:49:27.876Z,91.30
2023-02-12T14:52:17.588Z,90.30
2023-02-12T14:55:00.910Z,90.30
2023-02-12T14:57:30.402Z,88.60
2023-02-12T15:00:11.109Z,89.60
2023-02-12T15:02:40.723Z,90.10
2023-02-12T15:05:20.261Z,90.00
2023-02-12T15:07:58.327Z,90.10
2023-02-12T15:10:37.135Z,89.90
2023-02-12T15:13:22.283Z,90.30
2023-02-12T15:16:08.105Z,90.40
2023-02-12T15:18:43.546Z,90.20
2023-02-12T15:21:22.923Z,90.60
2023-02-12T15:24:02.054Z,91.00
2023-02-12T15:26:32.526Z,91.30
2023-02-12T15:29:00.196Z,92.40
2023-02-12T15:31:30.852Z,92.70
2023-02-12T15:34:00.407Z,93.40
2023-02-12T15:36:30.369Z,95.00
2023-02-12T15:39:04.124Z,96.30
2023-02-12T15:41:33.723Z,97.40
2023-02-12T15:44:02.483Z,98.10
2023-02-12T15:46:30.112Z,98.90
2023-02-12T15:48:56.929Z,99.40
2023-02-12T15:51:34.793Z,99.90
2023-02-12T15:54:05.441Z,99.90
2023-02-12T15:56:33.816Z,99.90
2023-02-12T15:59:01.635Z,99.90
2023-02-12T16:01:30.445Z,99.90
2023-02-12T16:04:00.474Z,99.90
2023-02-12T16:06:29.143Z,99.90
2023-02-12T16:09:03.795Z,99.90
2023-02-12T16:11:32.140Z,99.90
2023-02-12T16:14:02.454Z,99.90
2023-02-12T16:16:31.697Z,99.90
2023-02-12T16:19:25.741Z,99.90
2023-02-12T16:22:12.728Z,99.90
2023-02-12T16:24:45.784Z,99.90
2023-02-12T16:27:15.602Z,99.90
2023-02-12T16:29:51.870Z,99.90
2023-02-12T16:32:42.574Z,99.90
2023-02-12T16:35:12.615Z,99.90
2023-02-12T16:37:39.256Z,99.90
2023-02-12T16:40:17.959Z,99.90
2023-02-12T16:42:47.622Z,99.90
2023-02-12T16:45:35.825Z,99.90
2023-02-12T16:48:09.035Z,99.90
2023-02-12T16:50:39.335Z,99.90
2023-02-12T16:53:08.860Z,99.90
2023-02-12T16:55:36.747Z,99.90
2023-02-12T16:58:03.552Z,99.90
2023-02-12T17:00:30.263Z,99.90
2023-02-12T17:02:57.341Z,99.90
2023-02-12T17:05:24.917Z,99.90
2023-02-12T17:07:51.726Z,99.90
2023-02-12T17:10:18.424Z,99.90
2023-02-12T17:12:52.735Z,99.90
2023-02-12T17:15:25.675Z,99.90
2023-02-12T17:17:52.320Z,99.90
2023-02-12T17:20:19.149Z,99.90
2023-02-12T17:22:50.912Z,99.90
2023-02-12T17:25:17.653Z,99.90
2023-02-12T17:27:44.435Z,99.90
2023-02-12T17:30:15.834Z,99.90
2023-02-12T17:32:42.762Z,99.90
2023-02-12T17:35:09.648Z,99.90
2023-02-12T17:37:36.612Z,99.90
2023-02-12T17:40:03.617Z,99.90
2023-02-12T17:42:30.210Z,99.90
2023-02-12T17:44:56.946Z,99.90
2023-02-12T17:47:23.738Z,99.90
2023-02-12T17:49:50.401Z,99.90
2023-02-12T17:52:17.150Z,99.90
2023-02-12T17:54:47.495Z,99.90
2023-02-12T17:57:14.880Z,99.90
2023-02-12T17:59:41.970Z,99.90
2023-02-12T18:02:11.074Z,99.90
2023-02-12T18:04:37.737Z,99.90
2023-02-12T18:07:05.114Z,99.90
2023-02-12T18:09:31.755Z,99.90
2023-02-12T18:11:59.084Z,99.90
2023-02-12T18:14:25.689Z,99.90
2023-02-12T18:16:52.367Z,99.90
2023-02-12T18:19:19.032Z,99.90
2023-02-12T18:21:45.749Z,99.90
2023-02-12T18:24:12.381Z,99.90
2023-02-12T18:26:39.150Z,99.90
2023-02-12T18:29:05.809Z,99.90
2023-02-12T18:31:33.536Z,99.90
2023-02-12T18:34:00.379Z,99.90
2023-02-12T18:36:27.110Z,99.90
2023-02-12T18:38:53.717Z,99.90
2023-02-12T18:41:25.763Z,99.90
2023-02-12T18:43:52.574Z,99.90
2023-02-12T18:46:22.837Z,99.90
2023-02-12T18:48:50.412Z,99.90
2023-02-12T18:51:21.020Z,99.90
2023-02-12T18:53:48.517Z,99.90
2023-02-12T18:56:15.131Z,99.90
2023-02-12T18:58:41.768Z,99.90
2023-02-12T19:01:15.737Z,99.90
2023-02-12T19:03:43.366Z,99.90
2023-02-12T19:06:10.829Z,99.90
2023-02-12T19:08:37.503Z,99.90
2023-02-12T19:11:06.577Z,99.90
2023-02-12T19:13:33.375Z,99.90
2023-02-12T19:16:00.018Z,99.90
2023-02-12T19:18:26.676Z,99.90
2023-02-12T19:20:53.344Z,99.90
2023-02-12T19:23:19.937Z,99.90
2023-02-12T19:25:46.571Z,99.90
2023-02-12T19:28:13.299Z,99.90
2023-02-12T19:30:41.212Z,99.90
2023-02-12T19:33:08.215Z,99.90
2023-02-12T19:35:35.068Z,99.90
2023-02-12T19:38:01.818Z,99.90
2023-02-12T19:40:28.536Z,99.90
2023-02-12T19:42:55.156Z,99.90
2023-02-12T19:45:21.832Z,99.90
2023-02-12T19:47:50.693Z,99.90
2023-02-12T19:50:17.584Z,99.90
2023-02-12T19:52:44.212Z,99.90
2023-02-12T19:55:10.868Z,99.90
2023-02-12T19:57:38.528Z,99.90
2023-02-12T20:00:06.391Z,99.90
2023-02-12T20:02:33.302Z,99.90
2023-02-12T20:05:00.053Z,99.90
2023-02-12T20:07:26.747Z,99.90
2023-02-12T20:09:53.431Z,99.90
2023-02-12T20:12:20.042Z,99.90
2023-02-12T20:14:46.651Z,99.90
2023-02-12T20:17:14.315Z,99.90
2023-02-12T20:19:40.974Z,99.90
2023-02-12T20:22:07.656Z,99.90
2023-02-12T20:24:34.817Z,99.90
2023-02-12T20:27:02.678Z,99.90
2023-02-12T20:29:29.417Z,99.90
2023-02-12T20:31:56.154Z,99.90
2023-02-12T20:34:22.892Z,99.90
2023-02-12T20:36:49.760Z,99.90
2023-02-12T20:39:19.502Z,99.90
2023-02-12T20:41:46.619Z,99.90
2023-02-12T20:44:16.409Z,99.90
2023-02-12T20:46:47.506Z,99.90
2023-02-12T20:49:16.092Z,99.90
2023-02-12T20:51:43.107Z,99.90
2023-02-12T20:54:10.216Z,99.90
2023-02-12T20:56:37.744Z,99.90
2023-02-12T20:59:06.127Z,99.90
2023-02-12T21:01:38.132Z,99.90
2023-02-12T21:04:10.621Z,99.90
2023-02-12T21:06:40.113Z,99.90
2023-02-12T21:09:09.651Z,99.90
2023-02-12T21:11:37.028Z,99.90
2023-02-12T21:14:20.866Z,99.90
2023-02-12T21:16:48.876Z,99.90
2023-02-12T21:19:16.105Z,99.90
2023-02-12T21:21:46.957Z,99.90
2023-02-12T21:24:21.419Z,99.90
2023-02-12T21:26:48.210Z,99.90
2023-02-12T21:29:14.852Z,99.90
2023-02-12T21:31:44.239Z,99.90
2023-02-12T21:34:15.025Z,99.90
2023-02-12T21:36:44.973Z,99.90
2023-02-12T21:39:24.067Z,99.90
2023-02-12T21:41:52.913Z,99.90
2023-02-12T21:44:20.974Z,99.90
2023-02-12T21:46:47.727Z,99.90
2023-02-12T21:49:23.202Z,99.90
2023-02-12T21:51:50.438Z,99.90
2023-02-12T21:54:17.121Z,99.90
2023-02-12T21:56:46.597Z,99.90
2023-02-12T21:59:13.989Z,99.90
2023-02-12T22:01:48.169Z,99.90
2023-02-12T22:04:16.167Z,99.90
2023-02-12T22:06:46.038Z,99.90
2023-02-12T22:09:16.296Z,99.90
2023-02-12T22:11:43.425Z,99.90
2023-02-12T22:14:13.594Z,99.90
2023-02-12T22:16:40.531Z,99.90
2023-02-12T22:19:07.447Z,99.90
2023-02-12T22:21:36.685Z,99.90
2023-02-12T22:24:05.680Z,99.90
2023-02-12T22:26:33.118Z,99.90
2023-02-12T22:29:05.780Z,99.90
2023-02-12T22:31:35.037Z,99.90
2023-02-12T22:34:04.522Z,99.90
2023-02-12T22:36:33.443Z,99.90
2023-02-12T22:39:00.987Z,99.90
2023-02-12T22:41:29.099Z,99.90
2023-02-12T22:43:58.677Z,99.90
2023-02-12T22:46:25.443Z,99.90
2023-02-12T22:48:52.075Z,99.90
2023-02-12T22:51:24.725Z,99.90
2023-02-12T22:53:51.611Z,99.90
2023-02-12T22:56:18.866Z,99.90
2023-02-12T22:58:47.442Z,99.90
2023-02-12T23:01:17.880Z,99.90
2023-02-12T23:03:45.371Z,99.90
2023-02-12T23:06:14.465Z,99.90
2023-02-12T23:08:41.479Z,99.90
2023-02-12T23:11:08.727Z,99.90
2023-02-12T23:13:36.354Z,99.90
2023-02-12T23:16:03.886Z,99.90
2023-02-12T23:18:30.693Z,99.90
2023-02-12T23:20:57.948Z,99.90
2023-02-12T23:23:24.816Z,99.90
2023-02-12T23:25:53.904Z,99.90
2023-02-12T23:28:21.361Z,99.90
2023-02-12T23:30:49.045Z,99.90
2023-02-12T23:33:15.798Z,99.90
2023-02-12T23:35:42.605Z,99.90
2023-02-12T23:38:09.197Z,99.90
2023-02-12T23:40:35.908Z,99.90
2023-02-12T23:43:02.585Z,99.90
2023-02-12T23:45:29.278Z,99.90
2023-02-12T23:47:56.271Z,99.90
2023-02-12T23:50:23.201Z,99.90
2023-02-12T23:52:50.125Z,99.90
2023-02-12T23:55:18.748Z,99.90
2023-02-12T23:57:45.692Z,99.90
